Time;durP1;ratioP1;P1;durP2;ratioP2;P2;SDS_P1;SDS_P2;PMS_P1;PMS_P2;Temp;Humidity;BMP_temperature;BMP_pressure;BME280_temperature;BME280_humidity;BME280_pressure;Samples;Min_cycle;Max_cycle;Signal;HPM_P1;HPM_P2
2023/12/01 02:16:46;;;;;;;0.10;0.10;;;1.50;99.90;;;;;;4930853;29;20044;-90
2023/12/01 02:19:13;;;;;;;0.00;0.00;;;1.40;99.90;;;;;;4933752;29;20035;-89
2023/12/01 02:21:43;;;;;;;0.00;0.00;;;1.60;99.90;;;;;;4937270;29;20068;-88
2023/12/01 02:24:21;;;;;;;0.00;0.00;;;;;;;;;;4933382;29;20576;-87
2023/12/01 02:26:48;;;;;;;0.10;0.10;;;;;;;;;;4971876;23;20054;-93
2023/12/01 02:29:14;;;;;;;0.10;0.10;;;;;;;;;;4980664;28;20027;-94
2023/12/01 02:31:40;;;;;;;0.10;0.10;;;;;;;;;;4970593;28;20035;-94
2023/12/01 02:34:06;;;;;;;0.00;0.00;;;;;;;;;;4960770;28;20082;-95
2023/12/01 02:36:32;;;;;;;0.10;0.10;;;;;;;;;;4958351;28;20036;-93
2023/12/01 02:38:58;;;;;;;0.10;0.10;;;;;;;;;;4955641;28;20102;-93
2023/12/01 02:41:24;;;;;;;0.00;0.00;;;;;;;;;;4974192;28;20034;-94
2023/12/01 02:43:50;;;;;;;0.00;0.00;;;;;;;;;;4960079;28;20031;-95
2023/12/01 02:46:22;;;;;;;0.00;0.00;;;;;;;;;;4958913;28;20051;-94
2023/12/01 02:48:48;;;;;;;0.00;0.00;;;;;;;;;;4960733;28;20027;-93
2023/12/01 02:51:13;;;;;;;0.00;0.00;;;;;;;;;;4955019;28;20129;-94
2023/12/01 02:53:39;;;;;;;0.10;0.10;;;;;;;;;;4960163;28;20035;-94
2023/12/01 02:56:06;;;;;;;0.00;0.00;;;;;;;;;;4961725;29;20028;-94
2023/12/01 02:58:32;;;;;;;0.10;0.10;;;;;;;;;;4964796;28;20039;-93
2023/12/01 03:00:57;;;;;;;0.10;0.10;;;;;;;;;;4964280;28;20127;-94
2023/12/01 03:03:24;;;;;;;0.00;0.00;;;;;;;;;;4963981;28;20035;-93
2023/12/01 03:05:49;;;;;;;0.10;0.10;;;;;;;;;;4959428;28;20035;-94
2023/12/01 03:08:15;;;;;;;0.00;0.00;;;;;;;;;;4958252;28;20031;-92
2023/12/01 03:10:41;;;;;;;0.10;0.10;;;;;;;;;;4956756;28;20118;-93
2023/12/01 03:13:07;;;;;;;0.10;0.10;;;;;;;;;;4960876;29;20057;-92
2023/12/01 03:15:33;;;;;;;0.10;0.10;;;;;;;;;;4961035;28;20066;-94
2023/12/01 03:17:59;;;;;;;0.10;0.10;;;;;;;;;;4960419;29;20042;-93
2023/12/01 03:20:27;;;;;;;0.10;0.10;;;;;;;;;;4957183;28;20042;-93
2023/12/01 03:22:54;;;;;;;0.10;0.10;;;;;;;;;;4958328;28;20031;-93
2023/12/01 03:25:20;;;;;;;0.00;0.00;;;;;;;;;;4960037;28;20027;-93
2023/12/01 03:27:47;;;;;;;0.10;0.10;;;1.10;99.90;;;;;;4959990;28;20035;-93
2023/12/01 03:30:15;;;;;;;0.05;0.05;;;1.10;99.90;;;;;;4956627;29;20067;-93
2023/12/01 03:32:51;;;;;;;0.10;0.10;;;1.00;99.90;;;;;;4960651;28;20043;-94
2023/12/01 03:35:20;;;;;;;0.00;0.00;;;1.00;99.90;;;;;;4952510;29;20034;-92
2023/12/01 03:37:46;;;;;;;0.00;0.00;;;;;;;;;;4958955;28;20027;-93
2023/12/01 03:40:13;;;;;;;0.10;0.10;;;1.00;99.90;;;;;;4957623;28;20059;-93
2023/12/01 03:42:41;;;;;;;0.00;0.00;;;1.00;99.90;;;;;;4954674;28;20091;-93
2023/12/01 03:45:10;;;;;;;0.10;0.10;;;1.00;99.90;;;;;;4972443;28;20027;-92
2023/12/01 03:47:36;;;;;;;0.10;0.10;;;;;;;;;;4958472;28;20034;-93
2023/12/01 03:50:03;;;;;;;0.10;0.10;;;;;;;;;;4958598;28;20035;-93
2023/12/01 03:52:29;;;;;;;0.10;0.10;;;;;;;;;;4956440;28;20031;-94
2023/12/01 03:54:55;;;;;;;0.10;0.10;;;;;;;;;;4961688;29;20055;-93
2023/12/01 03:57:21;;;;;;;0.10;0.10;;;;;;;;;;4976645;28;20047;-94
2023/12/01 03:59:47;;;;;;;0.03;0.03;;;;;;;;;;4961428;28;20063;-93
2023/12/01 04:02:13;;;;;;;0.10;0.10;;;;;;;;;;4955304;28;20035;-94
2023/12/01 04:04:39;;;;;;;0.10;0.10;;;;;;;;;;4959626;28;20023;-93
2023/12/01 04:07:07;;;;;;;0.10;0.10;;;;;;;;;;4961290;28;20122;-93
2023/12/01 04:09:33;;;;;;;0.10;0.10;;;;;;;;;;4958129;28;20059;-93
2023/12/01 04:11:59;;;;;;;0.10;0.10;;;;;;;;;;4959214;28;20034;-93
2023/12/01 04:14:25;;;;;;;0.03;0.03;;;;;;;;;;4960661;28;20027;-93
2023/12/01 04:16:51;;;;;;;0.10;0.10;;;;;;;;;;4961345;28;20045;-93
2023/12/01 04:19:17;;;;;;;0.00;0.00;;;;;;;;;;4959978;28;20031;-93
2023/12/01 04:21:43;;;;;;;0.00;0.00;;;;;;;;;;4958309;28;20033;-93
2023/12/01 04:24:09;;;;;;;0.10;0.10;;;;;;;;;;4957900;28;20035;-93
2023/12/01 04:26:35;;;;;;;0.10;0.10;;;;;;;;;;4954102;28;20119;-94
2023/12/01 04:29:01;;;;;;;0.08;0.08;;;;;;;;;;4957399;29;20040;-93
2023/12/01 04:31:27;;;;;;;0.00;0.00;;;;;;;;;;4958550;28;20123;-93
2023/12/01 04:33:53;;;;;;;0.10;0.10;;;;;;;;;;4958130;28;20470;-93
2023/12/01 04:36:19;;;;;;;0.10;0.10;;;;;;;;;;4961758;28;20066;-93
2023/12/01 04:38:45;;;;;;;0.10;0.10;;;;;;;;;;4956815;29;20077;-93
2023/12/01 04:41:11;;;;;;;0.00;0.00;;;;;;;;;;4954792;28;20031;-93
2023/12/01 04:43:39;;;;;;;0.10;0.10;;;0.80;99.90;;;;;;4955014;28;20041;-93
2023/12/01 04:46:06;;;;;;;0.10;0.10;;;0.70;99.90;;;;;;4958837;28;20023;-93
2023/12/01 04:48:32;;;;;;;0.10;0.10;;;;;;;;;;4958241;28;20793;-93
2023/12/01 04:50:57;;;;;;;0.10;0.10;;;0.80;99.90;;;;;;4956271;28;20031;-94
2023/12/01 04:53:23;;;;;;;0.05;0.05;;;;;;;;;;4956435;28;20035;-92
2023/12/01 04:55:49;;;;;;;0.10;0.10;;;;;;;;;;4956867;28;20435;-94
2023/12/01 04:58:15;;;;;;;0.10;0.10;;;;;;;;;;4960295;28;20035;-92
2023/12/01 05:00:41;;;;;;;0.10;0.10;;;;;;;;;;4955060;28;20038;-93
2023/12/01 05:03:08;;;;;;;0.10;0.10;;;0.50;99.90;;;;;;4957551;28;20027;-93
2023/12/01 05:05:35;;;;;;;0.10;0.10;;;0.50;99.90;;;;;;4960091;28;20023;-94
2023/12/01 05:08:04;;;;;;;0.10;0.10;;;0.50;99.90;;;;;;4959795;28;20034;-93
2023/12/01 05:10:32;;;;;;;0.08;0.08;;;0.30;99.90;;;;;;4955674;28;20039;-93
2023/12/01 05:13:00;;;;;;;0.10;0.10;;;0.60;99.90;;;;;;4958833;29;20035;-92
2023/12/01 05:15:27;;;;;;;0.00;0.00;;;0.70;99.90;;;;;;4960195;28;20060;-93
2023/12/01 05:18:00;;;;;;;0.10;0.10;;;0.60;99.90;;;;;;4960029;28;20091;-95
2023/12/01 05:20:30;;;;;;;0.10;0.10;;;;;;;;;;4956889;28;20046;-94
2023/12/01 05:22:57;;;;;;;0.10;0.10;;;0.70;99.90;;;;;;4957450;28;20023;-93
2023/12/01 05:25:25;;;;;;;0.00;0.00;;;;;;;;;;4961203;28;20127;-93
2023/12/01 05:27:55;;;;;;;0.10;0.10;;;0.70;99.90;;;;;;4957807;28;20027;-93
2023/12/01 05:30:24;;;;;;;;;;;0.60;99.90;;;;;;4958066;28;20031;-92
2023/12/01 05:32:51;;;;;;;0.10;0.10;;;0.60;99.90;;;;;;4960301;28;19914;-92
2023/12/01 05:35:18;;;;;;;0.00;0.00;;;0.50;99.90;;;;;;4964155;28;20517;-93
2023/12/01 05:37:47;;;;;;;0.10;0.10;;;0.50;99.90;;;;;;4962339;28;20101;-93
2023/12/01 05:40:14;;;;;;;0.10;0.10;;;0.50;99.90;;;;;;4959618;28;20031;-94
2023/12/01 05:42:41;;;;;;;0.10;0.10;;;0.50;99.90;;;;;;4956424;28;20111;-93
2023/12/01 05:45:11;;;;;;;0.10;0.10;;;0.40;99.90;;;;;;4958910;28;20062;-93
2023/12/01 05:47:42;;;;;;;0.10;0.10;;;;;;;;;;4959311;28;20030;-92
2023/12/01 05:50:08;;;;;;;0.10;0.10;;;;;;;;;;4952294;28;20039;-92
2023/12/01 05:52:34;;;;;;;0.10;0.10;;;;;;;;;;4971781;28;20027;-92
2023/12/01 05:55:00;;;;;;;0.10;0.10;;;;;;;;;;4957070;28;20656;-93
2023/12/01 05:57:26;;;;;;;0.10;0.10;;;;;;;;;;4957543;28;20035;-93
2023/12/01 05:59:52;;;;;;;0.10;0.10;;;;;;;;;;4956468;28;20035;-93
2023/12/01 06:02:18;;;;;;;0.10;0.10;;;;;;;;;;4957665;28;20027;-93
2023/12/01 06:04:44;;;;;;;0.13;0.13;;;;;;;;;;4974778;28;20486;-93
2023/12/01 06:07:10;;;;;;;0.10;0.10;;;;;;;;;;4953835;28;20032;-93
2023/12/01 06:09:36;;;;;;;0.00;0.00;;;;;;;;;;4957562;28;20526;-94
2023/12/01 06:12:02;;;;;;;0.10;0.10;;;;;;;;;;4958650;28;20027;-92
2023/12/01 06:14:28;;;;;;;0.10;0.10;;;;;;;;;;4959547;28;20086;-93
2023/12/01 06:16:53;;;;;;;0.10;0.10;;;0.50;99.90;;;;;;4959172;28;20027;-93
2023/12/01 06:19:20;;;;;;;0.10;0.10;;;;;;;;;;4959032;28;20035;-93
2023/12/01 06:21:46;;;;;;;0.20;0.20;;;;;;;;;;4956014;28;20098;-93
2023/12/01 06:24:12;;;;;;;0.10;0.10;;;;;;;;;;4957182;28;20122;-93
2023/12/01 06:26:39;;;;;;;0.05;0.05;;;;;;;;;;4952799;28;20411;-93
2023/12/01 06:29:06;;;;;;;0.10;0.10;;;;;;;;;;4953050;28;20031;-93
2023/12/01 06:31:32;;;;;;;0.10;0.10;;;;;;;;;;4971735;28;20419;-92
2023/12/01 06:33:58;;;;;;;0.10;0.10;;;;;;;;;;4954890;28;20027;-94
2023/12/01 06:36:25;;;;;;;0.10;0.10;;;;;;;;;;4951586;28;20038;-93
2023/12/01 06:38:51;;;;;;;0.10;0.10;;;;;;;;;;4956957;28;20035;-93
2023/12/01 06:41:17;;;;;;;0.10;0.10;;;;;;;;;;4975929;28;20043;-94
2023/12/01 06:43:43;;;;;;;0.10;0.10;;;;;;;;;;4964516;28;20405;-92
2023/12/01 06:46:09;;;;;;;0.10;0.10;;;;;;;;;;4953977;28;20481;-93
2023/12/01 06:48:35;;;;;;;0.10;0.10;;;;;;;;;;4955448;28;20074;-92
2023/12/01 06:51:00;;;;;;;0.10;0.10;;;0.40;99.90;;;;;;4954341;28;20143;-93
2023/12/01 06:53:26;;;;;;;0.03;0.03;;;;;;;;;;4955880;28;20031;-92
2023/12/01 06:55:52;;;;;;;0.10;0.10;;;;;;;;;;4955550;28;20078;-93
2023/12/01 06:58:17;;;;;;;0.10;0.10;;;0.50;99.90;;;;;;4955884;28;20435;-93
2023/12/01 07:00:43;;;;;;;0.10;0.10;;;;;;;;;;4955548;28;20050;-93
2023/12/01 07:03:09;;;;;;;0.10;0.10;;;;;;;;;;4955698;28;20544;-93
2023/12/01 07:05:37;;;;;;;0.10;0.10;;;0.40;99.90;;;;;;4955279;28;20042;-92
2023/12/01 07:08:03;;;;;;;0.10;0.10;;;0.50;99.90;;;;;;4954180;28;20028;-93
2023/12/01 07:10:32;;;;;;;0.10;0.10;;;0.40;99.90;;;;;;4955779;28;20035;-93
2023/12/01 07:12:59;;;;;;;0.10;0.10;;;;;;;;;;4960267;28;20046;-92
2023/12/01 07:15:25;;;;;;;0.10;0.10;;;;;;;;;;4974959;28;20027;-93
2023/12/01 07:17:52;;;;;;;0.10;0.10;;;0.40;99.90;;;;;;4969238;28;20118;-92
2023/12/01 07:20:18;;;;;;;0.10;0.10;;;;;;;;;;4956338;28;20039;-92
2023/12/01 07:22:49;;;;;;;0.10;0.10;;;0.30;99.90;;;;;;4955028;28;20063;-93
2023/12/01 07:25:22;;;;;;;0.10;0.10;;;0.50;99.90;;;;;;4954105;28;20113;-93
2023/12/01 07:27:52;;;;;;;0.10;0.10;;;0.50;99.90;;;;;;4954784;28;20066;-93
2023/12/01 07:30:18;;;;;;;0.10;0.10;;;;;;;;;;4957867;28;20502;-93
2023/12/01 07:32:44;;;;;;;0.10;0.10;;;0.50;99.90;;;;;;4955341;28;20271;-91
2023/12/01 07:35:10;;;;;;;0.10;0.10;;;;;;;;;;4954761;28;20047;-92
2023/12/01 07:37:37;;;;;;;0.10;0.10;;;0.70;99.90;;;;;;4956396;28;20031;-93
2023/12/01 07:40:06;;;;;;;0.13;0.13;;;;;;;;;;4955540;29;20050;-93
2023/12/01 07:42:32;;;;;;;0.10;0.10;;;;;;;;;;4955658;28;20027;-93
2023/12/01 07:44:59;;;;;;;0.00;0.00;;;;;;;;;;4955552;28;20046;-93
2023/12/01 07:47:25;;;;;;;0.00;0.00;;;;;;;;;;4955847;28;20027;-93
2023/12/01 07:49:50;;;;;;;0.10;0.10;;;;;;;;;;4953916;28;20403;-94
2023/12/01 07:52:17;;;;;;;0.10;0.10;;;;;;;;;;4953210;28;20031;-93
2023/12/01 07:54:43;;;;;;;0.10;0.10;;;;;;;;;;4956189;28;20023;-94
2023/12/01 07:57:09;;;;;;;0.10;0.10;;;;;;;;;;4955042;28;20058;-92
2023/12/01 07:59:36;;;;;;;0.10;0.10;;;;;;;;;;4956301;28;20028;-94
2023/12/01 08:02:02;;;;;;;0.15;0.15;;;;;;;;;;4968023;28;20035;-94
2023/12/01 08:04:28;;;;;;;0.10;0.10;;;;;;;;;;4964471;28;20047;-92
2023/12/01 08:06:55;;;;;;;0.00;0.00;;;;;;;;;;4965275;28;20070;-93
2023/12/01 08:09:21;;;;;;;0.10;0.10;;;;;;;;;;4967398;28;20011;-93
2023/12/01 08:11:47;;;;;;;0.08;0.08;;;;;;;;;;4968702;28;20094;-92
2023/12/01 08:14:13;;;;;;;0.10;0.10;;;;;;;;;;4973438;28;20063;-93
2023/12/01 08:16:39;;;;;;;0.10;0.10;;;;;;;;;;4972589;28;20027;-93
2023/12/01 08:19:08;;;;;;;0.10;0.10;;;;;;;;;;4972533;28;20027;-93
2023/12/01 08:21:35;;;;;;;0.10;0.10;;;;;;;;;;4971641;28;20055;-93
2023/12/01 08:24:01;;;;;;;0.00;0.00;;;;;;;;;;4969972;28;20540;-94
2023/12/01 08:26:27;;;;;;;0.10;0.10;;;;;;;;;;4968173;28;20023;-93
2023/12/01 08:28:53;;;;;;;0.00;0.00;;;0.50;99.90;;;;;;4968530;29;20031;-93
2023/12/01 08:31:19;;;;;;;0.05;0.05;;;;;;;;;;4968354;28;20031;-92
2023/12/01 08:33:46;;;;;;;0.00;0.00;;;0.50;99.90;;;;;;4970799;28;20058;-94
2023/12/01 08:36:13;;;;;;;0.08;0.08;;;;;;;;;;4968531;28;20058;-93
2023/12/01 08:38:42;;;;;;;0.10;0.10;;;;;;;;;;4969159;29;20031;-93
2023/12/01 08:41:08;;;;;;;0.10;0.10;;;;;;;;;;4967570;28;20100;-93
2023/12/01 08:43:34;;;;;;;0.03;0.03;;;;;;;;;;4977866;28;20039;-93
2023/12/01 08:46:00;;;;;;;0.10;0.10;;;;;;;;;;4973955;28;20034;-95
2023/12/01 08:48:29;;;;;;;0.10;0.10;;;;;;;;;;4976762;28;20042;-95
2023/12/01 08:50:55;;;;;;;0.10;0.10;;;;;;;;;;4976690;28;20028;-96
2023/12/01 08:53:22;;;;;;;0.10;0.10;;;;;;;;;;4977691;28;20039;-96
2023/12/01 08:55:48;;;;;;;0.00;0.00;;;;;;;;;;4977815;28;20069;-95
2023/12/01 08:58:14;;;;;;;0.00;0.00;;;;;;;;;;4974460;28;20043;-96
2023/12/01 09:00:40;;;;;;;0.10;0.10;;;;;;;;;;4971810;28;20023;-96
2023/12/01 09:03:07;;;;;;;0.10;0.10;;;;;;;;;;4976889;28;20059;-95
2023/12/01 09:05:33;;;;;;;0.10;0.10;;;;;;;;;;4981391;28;20011;-95
2023/12/01 09:08:01;;;;;;;0.10;0.10;;;;;;;;;;4979473;28;20096;-96
2023/12/01 09:10:27;;;;;;;0.10;0.10;;;;;;;;;;4976487;28;20030;-95
2023/12/01 09:12:53;;;;;;;0.10;0.10;;;;;;;;;;4976861;28;20043;-95
2023/12/01 09:15:19;;;;;;;0.10;0.10;;;;;;;;;;4979218;28;20018;-95
2023/12/01 09:17:45;;;;;;;0.10;0.10;;;;;;;;;;4979434;28;20018;-96
2023/12/01 09:20:11;;;;;;;0.10;0.10;;;;;;;;;;4971884;28;20039;-92
2023/12/01 09:22:37;;;;;;;0.10;0.10;;;;;;;;;;4971205;28;20039;-94
2023/12/01 09:25:04;;;;;;;0.10;0.10;;;;;;;;;;4970296;28;20027;-94
2023/12/01 09:27:30;;;;;;;0.10;0.10;;;;;;;;;;4972307;28;20035;-95
2023/12/01 09:29:56;;;;;;;0.10;0.10;;;;;;;;;;4974312;28;20016;-94
2023/12/01 09:32:22;;;;;;;0.08;0.08;;;;;;;;;;4984670;28;20065;-93
2023/12/01 09:34:48;;;;;;;0.08;0.08;;;;;;;;;;4969542;28;20035;-94
2023/12/01 09:37:14;;;;;;;0.00;0.00;;;;;;;;;;4977327;28;20031;-94
2023/12/01 09:39:40;;;;;;;0.10;0.10;;;;;;;;;;4977809;28;20090;-96
2023/12/01 09:42:07;;;;;;;0.10;0.10;;;;;;;;;;4977117;28;20082;-95
2023/12/01 09:44:33;;;;;;;0.10;0.10;;;;;;;;;;4971910;28;20055;-94
2023/12/01 09:47:00;;;;;;;0.00;0.00;;;0.60;99.90;;;;;;4969742;28;20036;-94
2023/12/01 09:49:33;;;;;;;0.10;0.10;;;0.60;99.90;;;;;;4971493;28;20094;-95
2023/12/01 09:51:59;;;;;;;0.10;0.10;;;;;;;;;;4967504;28;20060;-95
2023/12/01 09:54:25;;;;;;;0.00;0.00;;;;;;;;;;4973300;28;20015;-94
2023/12/01 09:56:51;;;;;;;0.00;0.00;;;;;;;;;;4972252;28;20027;-93
2023/12/01 09:59:18;;;;;;;0.00;0.00;;;0.70;99.90;;;;;;4970880;28;20082;-95
2023/12/01 10:01:47;;;;;;;0.10;0.10;;;;;;;;;;4969027;28;20083;-94
2023/12/01 10:04:13;;;;;;;0.00;0.00;;;;;;;;;;4974035;28;20051;-94
2023/12/01 10:06:39;;;;;;;0.00;0.00;;;0.70;99.90;;;;;;4969105;28;20023;-94
2023/12/01 10:09:10;;;;;;;0.10;0.10;;;;;;;;;;4969513;28;20060;-93
2023/12/01 10:11:37;;;;;;;0.00;0.00;;;;;;;;;;4987028;28;20028;-94
2023/12/01 10:14:06;;;;;;;0.10;0.10;;;;;;;;;;4966863;28;20082;-94
2023/12/01 10:16:36;;;;;;;0.10;0.10;;;0.90;99.90;;;;;;4966142;28;20896;-93
2023/12/01 10:19:05;;;;;;;0.10;0.10;;;;;;;;;;4968831;28;20106;-94
2023/12/01 10:21:44;;;;;;;0.10;0.10;;;0.90;99.90;;;;;;4961973;28;20034;-93
2023/12/01 10:24:20;;;;;;;0.10;0.10;;;0.90;99.90;;;;;;4960438;28;20036;-93
2023/12/01 10:26:46;;;;;;;0.10;0.10;;;;;;;;;;4963077;28;20050;-93
2023/12/01 10:29:28;;;;;;;0.10;0.10;;;1.00;99.90;;;;;;4962644;28;20039;-93
2023/12/01 10:31:54;;;;;;;0.05;0.05;;;;;;;;;;4978091;28;20027;-92
2023/12/01 10:34:20;;;;;;;0.10;0.10;;;;;;;;;;4964787;28;20027;-94
2023/12/01 10:36:47;;;;;;;0.00;0.00;;;1.40;99.90;;;;;;4961429;28;20127;-94
2023/12/01 10:39:20;;;;;;;0.10;0.10;;;1.30;99.90;;;;;;4969793;28;20043;-94
2023/12/01 10:41:47;;;;;;;0.10;0.10;;;1.40;99.90;;;;;;4965944;28;20067;-94
2023/12/01 10:44:18;;;;;;;0.10;0.10;;;;;;;;;;4967043;29;20027;-94
2023/12/01 10:46:46;;;;;;;0.10;0.10;;;1.30;99.90;;;;;;4972962;28;20015;-95
2023/12/01 10:49:17;;;;;;;0.10;0.10;;;1.50;99.90;;;;;;4976967;28;20034;-95
2023/12/01 10:51:44;;;;;;;0.03;0.03;;;;;;;;;;4972930;28;20031;-94
2023/12/01 10:54:11;;;;;;;0.10;0.10;;;1.50;99.90;;;;;;4965681;28;20047;-92
2023/12/01 10:56:52;;;;;;;0.00;0.00;;;1.50;99.90;;;;;;4964864;28;20036;-94
2023/12/01 10:59:19;;;;;;;0.08;0.08;;;;;;;;;;4968432;29;20103;-94
2023/12/01 11:01:49;;;;;;;0.10;0.10;;;;;;;;;;4967837;28;20114;-94
2023/12/01 11:04:23;;;;;;;0.10;0.10;;;1.70;99.90;;;;;;4966458;28;20066;-94
2023/12/01 11:07:16;;;;;;;0.00;0.00;;;1.60;99.90;;;;;;4967813;28;20097;-94
2023/12/01 11:09:42;;;;;;;0.00;0.00;;;;;;;;;;4967987;29;20027;-94
2023/12/01 11:12:23;;;;;;;0.00;0.00;;;1.70;99.90;;;;;;4968211;28;20058;-94
2023/12/01 11:14:51;;;;;;;0.05;0.05;;;1.60;99.90;;;;;;4987237;28;20031;-95
2023/12/01 11:17:18;;;;;;;0.10;0.10;;;1.50;99.90;;;;;;4968753;28;20454;-93
2023/12/01 11:19:44;;;;;;;0.00;0.00;;;;;;;;;;4968287;28;20058;-94
2023/12/01 11:22:27;;;;;;;0.00;0.00;;;1.50;99.90;;;;;;4966299;28;20027;-94
2023/12/01 11:24:53;;;;;;;0.10;0.10;;;;;;;;;;4964711;28;20031;-94
2023/12/01 11:27:19;;;;;;;0.00;0.00;;;;;;;;;;4968251;28;20022;-93
2023/12/01 11:30:06;;;;;;;0.00;0.00;;;1.50;99.90;;;;;;4967112;29;20058;-94
2023/12/01 11:32:33;;;;;;;0.00;0.00;;;;;;;;;;4965796;28;20459;-93
2023/12/01 11:35:07;;;;;;;0.03;0.03;;;1.60;99.90;;;;;;4974223;28;20107;-95
2023/12/01 11:37:59;;;;;;;0.03;0.03;;;1.80;99.90;;;;;;4970618;28;20043;-94
2023/12/01 11:40:26;;;;;;;0.03;0.03;;;;;;;;;;4972683;29;20059;-94
2023/12/01 11:42:52;;;;;;;0.00;0.00;;;;;;;;;;4969893;28;20043;-92
2023/12/01 11:45:41;;;;;;;0.10;0.10;;;1.60;99.90;;;;;;4970453;28;20483;-93
2023/12/01 11:48:09;;;;;;;0.10;0.10;;;;;;;;;;4967173;28;20023;-94
2023/12/01 11:50:38;;;;;;;0.10;0.10;;;1.70;99.90;;;;;;4965878;28;20031;-94
2023/12/01 11:53:05;;;;;;;0.10;0.10;;;;;;;;;;4961690;28;20027;-94
2023/12/01 11:55:31;;;;;;;0.10;0.10;;;;;;;;;;4966987;28;20023;-94
2023/12/01 11:57:58;;;;;;;0.08;0.08;;;;;;;;;;4966219;28;20027;-94
2023/12/01 12:00:25;;;;;;;0.00;0.00;;;;;;;;;;4962341;28;20088;-94
2023/12/01 12:02:52;;;;;;;0.00;0.00;;;;;;;;;;4966109;28;20035;-93
2023/12/01 12:05:18;;;;;;;0.00;0.00;;;;;;;;;;4964477;28;20142;-94
2023/12/01 12:07:45;;;;;;;0.00;0.00;;;;;;;;;;4966879;28;20030;-94
2023/12/01 12:10:14;;;;;;;0.00;0.00;;;1.70;99.90;;;;;;4970427;28;20033;-93
2023/12/01 12:12:41;;;;;;;0.03;0.03;;;;;;;;;;4966775;28;20102;-94
2023/12/01 12:15:08;;;;;;;0.10;0.10;;;1.80;99.90;;;;;;4971260;28;20066;-92
2023/12/01 12:17:34;;;;;;;0.00;0.00;;;;;;;;;;4971024;28;20174;-94
2023/12/01 12:20:00;;;;;;;0.00;0.00;;;;;;;;;;4973068;28;20560;-93
2023/12/01 12:22:26;;;;;;;0.00;0.00;;;1.60;99.90;;;;;;4967285;28;20023;-93
2023/12/01 12:24:52;;;;;;;0.00;0.00;;;;;;;;;;4953479;29;20039;-93
2023/12/01 12:27:18;;;;;;;0.03;0.03;;;;;;;;;;4973144;28;20031;-95
2023/12/01 12:29:47;;;;;;;0.10;0.10;;;1.80;99.90;;;;;;4979882;28;20031;-95
2023/12/01 12:32:13;;;;;;;0.10;0.10;;;;;;;;;;4978912;28;20020;-95
2023/12/01 12:34:39;;;;;;;0.08;0.08;;;;;;;;;;4965639;28;20050;-93
2023/12/01 12:37:05;;;;;;;0.00;0.00;;;;;;;;;;4963940;28;20031;-92
2023/12/01 12:39:32;;;;;;;0.00;0.00;;;1.70;99.90;;;;;;4963054;28;20023;-94
2023/12/01 12:41:59;;;;;;;0.00;0.00;;;;;;;;;;4962457;28;20027;-94
2023/12/01 12:44:25;;;;;;;0.00;0.00;;;;;;;;;;4962761;28;20078;-93
2023/12/01 12:47:02;;;;;;;0.10;0.10;;;1.60;99.90;;;;;;4962913;28;20042;-94
2023/12/01 12:49:32;;;;;;;0.10;0.10;;;1.60;99.90;;;;;;4960467;28;20034;-94
2023/12/01 12:52:02;;;;;;;0.00;0.00;;;1.70;99.90;;;;;;4963383;28;20091;-93
2023/12/01 12:54:28;;;;;;;0.10;0.10;;;;;;;;;;4961432;28;20027;-93
2023/12/01 12:56:54;;;;;;;0.00;0.00;;;;;;;;;;4958869;28;20031;-94
2023/12/01 12:59:20;;;;;;;0.00;0.00;;;;;;;;;;4960435;28;20042;-94
2023/12/01 13:01:46;;;;;;;0.00;0.00;;;;;;;;;;4959216;28;20066;-94
2023/12/01 13:04:12;;;;;;;0.00;0.00;;;1.60;99.90;;;;;;4981194;28;20038;-94
2023/12/01 13:06:38;;;;;;;0.10;0.10;;;;;;;;;;4968469;28;20031;-94
2023/12/01 13:09:05;;;;;;;0.00;0.00;;;;;;;;;;4969279;28;20070;-94
2023/12/01 13:11:30;;;;;;;0.10;0.10;;;;;;;;;;4969254;28;20028;-94
2023/12/01 13:13:56;;;;;;;0.00;0.00;;;;;;;;;;4969294;28;20470;-94
2023/12/01 13:16:22;;;;;;;0.00;0.00;;;;;;;;;;4983786;28;20094;-94
2023/12/01 13:18:48;;;;;;;0.10;0.10;;;;;;;;;;4978393;28;20046;-94
2023/12/01 13:21:15;;;;;;;0.00;0.00;;;;;;;;;;4979913;28;20027;-94
2023/12/01 13:23:41;;;;;;;0.10;0.10;;;;;;;;;;4966866;28;20301;-95
2023/12/01 13:26:07;;;;;;;0.10;0.10;;;;;;;;;;4967226;28;20066;-95
2023/12/01 13:28:33;;;;;;;0.05;0.05;;;;;;;;;;4967359;28;20039;-95
2023/12/01 13:30:59;;;;;;;0.10;0.10;;;;;;;;;;4958560;28;20400;-94
2023/12/01 13:33:26;;;;;;;0.10;0.10;;;;;;;;;;4960212;28;20487;-93
2023/12/01 13:35:52;;;;;;;0.10;0.10;;;1.20;99.90;;;;;;4963229;28;20035;-94
2023/12/01 13:38:18;;;;;;;0.08;0.08;;;;;;;;;;4958388;28;20042;-93
2023/12/01 13:40:44;;;;;;;0.10;0.10;;;;;;;;;;4961338;28;20031;-93
2023/12/01 13:43:10;;;;;;;0.10;0.10;;;;;;;;;;4965321;28;20443;-93
2023/12/01 13:45:36;;;;;;;0.10;0.10;;;;;;;;;;4964687;28;20079;-93
2023/12/01 13:48:03;;;;;;;0.00;0.00;;;;;;;;;;4962886;28;20028;-94
2023/12/01 13:50:29;;;;;;;0.10;0.10;;;;;;;;;;4957577;28;20042;-94
2023/12/01 13:52:55;;;;;;;0.10;0.10;;;;;;;;;;4959535;28;20023;-93
2023/12/01 13:55:22;;;;;;;0.00;0.00;;;;;;;;;;4964965;28;20738;-95
2023/12/01 13:57:50;;;;;;;0.10;0.10;;;;;;;;;;4962943;28;20414;-94
2023/12/01 14:00:16;;;;;;;0.10;0.10;;;;;;;;;;4965490;28;20039;-94
2023/12/01 14:02:47;;;;;;;0.10;0.10;;;0.80;99.90;;;;;;4962661;28;20035;-93
2023/12/01 14:05:13;;;;;;;0.10;0.10;;;;;;;;;;4964903;28;20038;-93
2023/12/01 14:07:40;;;;;;;0.10;0.10;;;;;;;;;;4963957;29;20054;-93
2023/12/01 14:10:06;;;;;;;0.10;0.10;;;0.60;99.90;;;;;;4967925;28;20095;-94
2023/12/01 14:12:32;;;;;;;0.00;0.00;;;;;;;;;;4956843;28;20035;-94
2023/12/01 14:14:58;;;;;;;0.00;0.00;;;;;;;;;;4960955;28;20038;-93
2023/12/01 14:17:24;;;;;;;0.10;0.10;;;;;;;;;;4958614;28;20487;-94
2023/12/01 14:19:53;;;;;;;0.10;0.10;;;;;;;;;;4957347;28;20027;-95
2023/12/01 14:22:25;;;;;;;0.03;0.03;;;;;;;;;;4962661;28;20039;-95
2023/12/01 14:24:54;;;;;;;0.10;0.10;;;;;;;;;;4967094;29;20715;-94
2023/12/01 14:27:26;;;;;;;0.00;0.00;;;;;;;;;;4966340;28;20031;-93
2023/12/01 14:29:52;;;;;;;0.10;0.10;;;;;;;;;;4964423;29;20062;-94
2023/12/01 14:32:18;;;;;;;0.10;0.10;;;;;;;;;;4967392;28;20035;-93
2023/12/01 14:34:44;;;;;;;0.10;0.10;;;;;;;;;;4966988;28;20019;-94
2023/12/01 14:37:10;;;;;;;0.10;0.10;;;;;;;;;;4967717;28;20122;-93
2023/12/01 14:39:36;;;;;;;0.00;0.00;;;;;;;;;;4965133;28;20023;-93
2023/12/01 14:42:02;;;;;;;0.10;0.10;;;;;;;;;;4961467;28;20085;-94
2023/12/01 14:44:28;;;;;;;0.10;0.10;;;;;;;;;;4954413;28;20032;-94
2023/12/01 14:46:54;;;;;;;0.05;0.05;;;;;;;;;;4955767;28;20042;-93
2023/12/01 14:49:20;;;;;;;0.00;0.00;;;;;;;;;;4955959;29;20028;-93
2023/12/01 14:51:46;;;;;;;0.00;0.00;;;;;;;;;;4954299;28;20031;-93
2023/12/01 14:54:12;;;;;;;0.00;0.00;;;;;;;;;;4957525;28;20039;-93
2023/12/01 14:56:38;;;;;;;0.10;0.10;;;;;;;;;;4959049;28;20028;-93
2023/12/01 14:59:04;;;;;;;0.00;0.00;;;;;;;;;;4956397;28;20034;-94
2023/12/01 15:01:30;;;;;;;0.10;0.10;;;;;;;;;;4955553;28;20034;-94
2023/12/01 15:03:56;;;;;;;0.10;0.10;;;;;;;;;;4951070;28;20035;-94
2023/12/01 15:06:22;;;;;;;0.10;0.10;;;;;;;;;;4953682;28;20035;-94
2023/12/01 15:08:47;;;;;;;0.10;0.10;;;;;;;;;;4953980;28;20284;-93
2023/12/01 15:11:13;;;;;;;0.10;0.10;;;;;;;;;;4967023;28;20047;-96
2023/12/01 15:13:39;;;;;;;0.00;0.00;;;;;;;;;;4973782;28;20035;-96
2023/12/01 15:16:05;;;;;;;0.10;0.10;;;;;;;;;;4964025;28;20031;-94
2023/12/01 15:18:31;;;;;;;0.10;0.10;;;;;;;;;;4956770;28;20029;-93
2023/12/01 15:20:58;;;;;;;0.10;0.10;;;0.20;99.90;;;;;;4951678;28;20031;-93
2023/12/01 15:23:24;;;;;;;0.03;0.03;;;;;;;;;;4953994;28;20078;-93
2023/12/01 15:25:50;;;;;;;0.10;0.10;;;;;;;;;;4952536;28;20031;-94
2023/12/01 15:28:16;;;;;;;0.00;0.00;;;;;;;;;;4953367;28;20058;-94
2023/12/01 15:30:42;;;;;;;0.10;0.10;;;;;;;;;;4956557;28;20046;-93
2023/12/01 15:33:08;;;;;;;0.10;0.10;;;;;;;;;;4955584;28;20079;-93
2023/12/01 15:35:34;;;;;;;0.10;0.10;;;;;;;;;;4952753;28;20030;-94
2023/12/01 15:38:00;;;;;;;0.10;0.10;;;;;;;;;;4949154;28;20074;-94
2023/12/01 15:40:26;;;;;;;0.00;0.00;;;;;;;;;;4953791;28;20031;-93
2023/12/01 15:42:52;;;;;;;0.00;0.00;;;;;;;;;;4953527;28;20573;-94
2023/12/01 15:45:19;;;;;;;0.00;0.00;;;;;;;;;;4954703;28;20146;-93
2023/12/01 15:47:45;;;;;;;0.10;0.10;;;;;;;;;;4954967;28;20046;-94
2023/12/01 15:50:11;;;;;;;0.00;0.00;;;;;;;;;;4956005;28;20446;-93
2023/12/01 15:52:37;;;;;;;0.00;0.00;;;;;;;;;;4956136;28;20023;-93
2023/12/01 15:55:03;;;;;;;0.00;0.00;;;;;;;;;;4971033;28;20110;-93
2023/12/01 15:57:29;;;;;;;0.10;0.10;;;;;;;;;;4953224;28;20039;-94
2023/12/01 15:59:55;;;;;;;0.00;0.00;;;;;;;;;;4955413;28;20046;-93
2023/12/01 16:02:22;;;;;;;0.00;0.00;;;;;;;;;;4956331;28;20031;-93
2023/12/01 16:04:48;;;;;;;0.10;0.10;;;;;;;;;;4953215;28;20031;-93
2023/12/01 16:07:14;;;;;;;0.10;0.10;;;;;;;;;;4950595;28;20035;-93
2023/12/01 16:09:40;;;;;;;0.10;0.10;;;;;;;;;;4954916;28;20031;-93
2023/12/01 16:12:06;;;;;;;0.10;0.10;;;;;;;;;;4955154;28;20027;-93
2023/12/01 16:14:32;;;;;;;0.00;0.00;;;;;;;;;;4950615;28;20099;-94
2023/12/01 16:16:58;;;;;;;0.00;0.00;;;;;;;;;;4950273;28;20058;-93
2023/12/01 16:19:24;;;;;;;0.10;0.10;;;;;;;;;;4952444;28;20082;-94
2023/12/01 16:21:51;;;;;;;0.10;0.10;;;0.20;99.90;;;;;;4951081;28;20058;-93
2023/12/01 16:24:17;;;;;;;0.00;0.00;;;;;;;;;;4953571;28;20119;-94
2023/12/01 16:26:43;;;;;;;0.10;0.10;;;;;;;;;;4955407;28;20027;-93
2023/12/01 16:29:10;;;;;;;0.00;0.00;;;;;;;;;;4950260;28;20067;-94
2023/12/01 16:31:36;;;;;;;0.03;0.03;;;;;;;;;;4952599;28;20339;-93